createdAt,value
2019-05-07T00:00:03.972Z,0
2019-05-07T00:01:15.040Z,0
2019-05-07T00:02:14.266Z,0
2019-05-07T00:03:13.607Z,0
2019-05-07T00:04:24.771Z,0
2019-05-07T00:05:24.029Z,0
2019-05-07T00:07:23.541Z,0
2019-05-07T00:07:35.405Z,0
2019-05-07T00:08:34.670Z,0
2019-05-07T00:09:34.027Z,0
2019-05-07T00:10:34.217Z,0
2019-05-07T00:11:33.475Z,0
2019-05-07T00:11:45.357Z,0
2019-05-07T00:12:44.589Z,0
2019-05-07T00:13:44.385Z,0
2019-05-07T00:14:57.263Z,0
2019-05-07T00:15:43.422Z,0
2019-05-07T00:15:55.268Z,0
2019-05-07T00:16:54.528Z,0
2019-05-07T00:17:53.785Z,0
2019-05-07T00:19:04.905Z,0
2019-05-07T00:20:04.237Z,0
2019-05-07T00:21:03.653Z,0
2019-05-07T00:21:15.359Z,0
2019-05-07T00:22:03.740Z,0
2019-05-07T00:23:14.868Z,0
2019-05-07T00:24:14.121Z,0
2019-05-07T00:25:13.430Z,0
2019-05-07T00:25:25.298Z,0
2019-05-07T00:26:24.539Z,0
2019-05-07T00:27:23.842Z,0
2019-05-07T00:28:34.927Z,0
2019-05-07T00:29:23.359Z,0
2019-05-07T00:29:35.236Z,0
2019-05-07T00:30:34.537Z,0
2019-05-07T00:31:33.808Z,0
2019-05-07T00:32:44.855Z,0
2019-05-07T00:33:44.095Z,0
2019-05-07T00:34:43.357Z,0
2019-05-07T00:34:55.209Z,0
2019-05-07T00:36:54.876Z,0
2019-05-07T00:37:54.164Z,0
2019-05-07T00:38:53.553Z,0
2019-05-07T00:39:53.352Z,0
2019-05-07T00:40:05.194Z,0
2019-05-07T00:41:04.877Z,0
2019-05-07T00:42:04.144Z,0
2019-05-07T00:43:03.515Z,0
2019-05-07T00:44:14.983Z,0
2019-05-07T00:45:20.138Z,0
2019-05-07T00:46:14.713Z,0
2019-05-07T00:47:14.065Z,0
2019-05-07T00:48:13.373Z,0
2019-05-07T00:48:25.312Z,0
2019-05-07T00:49:13.536Z,0
2019-05-07T00:49:25.397Z,0
2019-05-07T00:50:24.747Z,0
2019-05-07T00:51:24.055Z,0
2019-05-07T00:52:24.840Z,0
2019-05-07T00:53:25.140Z,0
2019-05-07T00:54:24.433Z,0
2019-05-07T00:55:23.402Z,0
2019-05-07T00:56:25.338Z,0
2019-05-07T00:57:14.270Z,0
2019-05-07T00:58:13.579Z,0
2019-05-07T00:59:14.229Z,0
2019-05-07T01:00:03.976Z,0
2019-05-07T01:01:04.737Z,0
2019-05-07T01:01:54.731Z,0
2019-05-07T01:03:55.153Z,0
2019-05-07T01:04:54.564Z,0
2019-05-07T01:05:53.871Z,0
2019-05-07T01:07:05.174Z,0
2019-05-07T01:08:04.549Z,0
2019-05-07T01:09:03.963Z,0
2019-05-07T01:10:15.206Z,0
2019-05-07T01:11:14.564Z,0
2019-05-07T01:12:14.003Z,0
2019-05-07T01:13:13.389Z,0
2019-05-07T01:13:25.252Z,0
2019-05-07T01:14:24.646Z,0
2019-05-07T01:15:30.607Z,0
2019-05-07T01:16:24.528Z,0
2019-05-07T01:17:23.845Z,0
2019-05-07T01:18:35.127Z,0
2019-05-07T01:19:34.479Z,0
2019-05-07T01:20:34.841Z,0
2019-05-07T01:21:35.086Z,0
2019-05-07T01:22:34.347Z,0
2019-05-07T01:23:33.637Z,0
2019-05-07T01:24:44.766Z,0
2019-05-07T01:25:44.426Z,0
2019-05-07T01:26:44.047Z,0
2019-05-07T01:27:43.464Z,0
2019-05-07T01:27:55.374Z,0
2019-05-07T01:28:54.755Z,0
2019-05-07T01:29:54.255Z,0
2019-05-07T01:30:53.678Z,0
2019-05-07T01:31:53.543Z,0
2019-05-07T01:32:05.402Z,0
2019-05-07T01:33:04.841Z,0
2019-05-07T01:34:04.307Z,0
2019-05-07T01:35:03.660Z,0
2019-05-07T01:36:03.380Z,0
2019-05-07T01:36:15.226Z,0
2019-05-07T01:37:14.673Z,0
2019-05-07T01:38:14.196Z,0
2019-05-07T01:39:13.692Z,0
2019-05-07T01:40:24.929Z,0
2019-05-07T01:41:24.391Z,0
2019-05-07T01:42:24.009Z,0
2019-05-07T01:43:23.558Z,0
2019-05-07T01:44:35.068Z,0
2019-05-07T01:45:45.050Z,0
2019-05-07T01:46:33.836Z,0
2019-05-07T01:47:34.562Z,0
2019-05-07T01:48:33.922Z,0
2019-05-07T01:49:33.607Z,0
2019-05-07T01:50:33.920Z,0
2019-05-07T01:51:33.480Z,0
2019-05-07T01:51:45.420Z,0
2019-05-07T01:52:45.078Z,0
2019-05-07T01:53:44.614Z,0
2019-05-07T01:54:47.040Z,0
2019-05-07T01:55:43.612Z,0
2019-05-07T01:56:54.873Z,0
2019-05-07T01:57:54.237Z,0
2019-05-07T01:58:53.814Z,0
2019-05-07T01:59:54.010Z,0
2019-05-07T02:00:53.702Z,0
2019-05-07T02:02:04.984Z,0
2019-05-07T02:03:04.420Z,0
2019-05-07T02:04:04.001Z,0
2019-05-07T02:05:03.463Z,0
2019-05-07T02:05:15.318Z,0
2019-05-07T02:06:14.851Z,0
2019-05-07T02:07:14.380Z,0
2019-05-07T02:08:13.686Z,0
2019-05-07T02:09:24.947Z,0
2019-05-07T02:10:24.246Z,0
2019-05-07T02:11:23.519Z,0
2019-05-07T02:11:35.356Z,0
2019-05-07T02:12:34.635Z,0
2019-05-07T02:13:33.979Z,0
2019-05-07T02:14:45.092Z,0
2019-05-07T02:15:56.631Z,0
2019-05-07T02:16:43.601Z,0
2019-05-07T02:17:54.763Z,0
2019-05-07T02:18:54.163Z,0
2019-05-07T02:19:54.401Z,0
2019-05-07T02:20:53.658Z,0
2019-05-07T02:22:04.794Z,0
2019-05-07T02:23:04.036Z,0
2019-05-07T02:24:03.502Z,0
2019-05-07T02:24:15.196Z,0
2019-05-07T02:25:14.458Z,0
2019-05-07T02:26:13.759Z,0
2019-05-07T02:27:24.865Z,0
2019-05-07T02:28:24.171Z,0
2019-05-07T02:29:23.433Z,0
2019-05-07T02:29:38.063Z,0
2019-05-07T02:30:35.345Z,0
2019-05-07T02:31:34.011Z,0
2019-05-07T02:32:44.919Z,0
2019-05-07T02:33:44.270Z,0
2019-05-07T02:34:44.297Z,0
2019-05-07T02:35:54.669Z,0
2019-05-07T02:36:54.057Z,0
2019-05-07T02:37:56.692Z,0
2019-05-07T02:38:53.474Z,0
2019-05-07T02:39:05.337Z,0
2019-05-07T02:39:53.756Z,0
2019-05-07T02:41:04.864Z,0
2019-05-07T02:42:04.129Z,0
2019-05-07T02:43:03.374Z,0
2019-05-07T02:43:15.242Z,0
2019-05-07T02:44:14.549Z,0
2019-05-07T02:45:13.835Z,0
2019-05-07T02:46:22.173Z,0
2019-05-07T02:47:25.140Z,0
2019-05-07T02:48:24.441Z,0
2019-05-07T02:49:23.746Z,0
2019-05-07T02:50:34.815Z,0
2019-05-07T02:51:34.102Z,0
2019-05-07T02:52:33.389Z,0
2019-05-07T02:52:45.235Z,0
2019-05-07T02:53:44.469Z,0
2019-05-07T02:54:43.864Z,0
2019-05-07T02:55:54.861Z,0
2019-05-07T02:56:54.164Z,0
2019-05-07T02:57:54.116Z,0
2019-05-07T02:58:05.267Z,0
2019-05-07T02:59:04.557Z,0
2019-05-07T03:00:04.639Z,0
2019-05-07T03:01:14.939Z,0
2019-05-07T03:02:14.312Z,0
2019-05-07T03:03:13.995Z,0
2019-05-07T03:03:25.420Z,0
2019-05-07T03:05:15.059Z,0
2019-05-07T03:06:14.313Z,0
2019-05-07T03:07:13.663Z,0
2019-05-07T03:08:27.483Z,0
2019-05-07T03:09:24.043Z,0
2019-05-07T03:10:35.142Z,0
2019-05-07T03:11:34.418Z,0
2019-05-07T03:12:33.830Z,0
2019-05-07T03:13:44.822Z,0
2019-05-07T03:14:44.056Z,0
2019-05-07T03:15:55.114Z,0
2019-05-07T03:16:55.357Z,0
2019-05-07T03:17:54.681Z,0
2019-05-07T03:18:53.912Z,0
2019-05-07T03:20:05.060Z,0
2019-05-07T03:21:04.306Z,0
2019-05-07T03:22:04.526Z,0
2019-05-07T03:23:03.825Z,0
2019-05-07T03:24:14.908Z,0
2019-05-07T03:25:14.152Z,0
2019-05-07T03:26:13.852Z,0
2019-05-07T03:26:25.256Z,0
2019-05-07T03:27:24.594Z,0
2019-05-07T03:28:23.825Z,0
2019-05-07T03:29:34.928Z,0
2019-05-07T03:30:25.927Z,0
2019-05-07T03:31:25.972Z,0
2019-05-07T03:32:27.294Z,0
2019-05-07T03:33:26.486Z,0
2019-05-07T03:34:25.933Z,0
2019-05-07T03:35:27.166Z,0
2019-05-07T03:37:24.949Z,0
2019-05-07T03:38:24.156Z,0
2019-05-07T03:39:24.394Z,0
2019-05-07T03:40:23.645Z,0
2019-05-07T03:41:34.799Z,0
2019-05-07T03:42:34.109Z,0
2019-05-07T03:43:33.361Z,0
2019-05-07T03:43:45.242Z,0
2019-05-07T03:44:44.895Z,0
2019-05-07T03:45:43.778Z,0
2019-05-07T03:47:55.062Z,0
2019-05-07T03:48:54.379Z,0
2019-05-07T03:49:53.719Z,0
2019-05-07T03:51:04.740Z,0
2019-05-07T03:52:04.555Z,0
2019-05-07T03:53:03.365Z,0
2019-05-07T03:53:15.211Z,0
2019-05-07T03:54:14.568Z,0
2019-05-07T03:55:14.619Z,0
2019-05-07T03:56:24.848Z,0
2019-05-07T03:57:25.068Z,0
2019-05-07T03:58:24.325Z,0
2019-05-07T03:59:23.612Z,0
2019-05-07T04:00:34.761Z,0
2019-05-07T04:01:34.041Z,5.625
2019-05-07T04:02:45.122Z,5.625
2019-05-07T04:03:45.060Z,5.625
2019-05-07T04:04:43.689Z,5.625
2019-05-07T04:05:54.813Z,5.625
2019-05-07T04:06:54.160Z,5.625
2019-05-07T04:07:54.432Z,5.625
2019-05-07T04:08:53.673Z,5.625
2019-05-07T04:10:04.869Z,5.625
2019-05-07T04:11:04.257Z,5.625
2019-05-07T04:12:15.081Z,5.625
2019-05-07T04:13:14.366Z,5.625
2019-05-07T04:14:13.786Z,5.625
2019-05-07T04:16:14.054Z,11.25
2019-05-07T04:17:21.357Z,5.625
2019-05-07T04:18:13.727Z,11.25
2019-05-07T04:19:24.783Z,11.25
2019-05-07T04:20:24.184Z,11.25
2019-05-07T04:21:35.083Z,11.25
2019-05-07T04:22:35.375Z,11.25
2019-05-07T04:23:23.826Z,11.25
2019-05-07T04:24:24.035Z,11.25
2019-05-07T04:25:35.141Z,11.25
2019-05-07T04:26:34.390Z,11.25
2019-05-07T04:27:33.673Z,11.25
2019-05-07T04:28:44.825Z,11.25
2019-05-07T04:29:44.094Z,11.25
2019-05-07T04:30:43.891Z,16.875
2019-05-07T04:30:55.291Z,16.875
2019-05-07T04:31:54.575Z,16.875
2019-05-07T04:32:53.849Z,16.875
2019-05-07T04:34:04.954Z,16.875
2019-05-07T04:35:04.368Z,16.875
2019-05-07T04:36:03.537Z,16.875
2019-05-07T04:36:15.412Z,16.875
2019-05-07T04:37:14.689Z,16.875
2019-05-07T04:38:14.900Z,16.875
2019-05-07T04:39:14.184Z,16.875
2019-05-07T04:40:13.651Z,16.875
2019-05-07T04:40:25.408Z,16.875
2019-05-07T04:41:24.649Z,16.875
2019-05-07T04:42:24.462Z,16.875
2019-05-07T04:43:35.147Z,16.875
2019-05-07T04:44:34.433Z,22.5
2019-05-07T04:45:34.093Z,22.5
2019-05-07T04:46:48.071Z,22.5
2019-05-07T04:47:47.619Z,22.5
2019-05-07T04:48:44.435Z,22.5
2019-05-07T04:49:43.742Z,22.5
2019-05-07T04:49:55.393Z,22.5
2019-05-07T04:51:54.929Z,22.5
2019-05-07T04:52:54.253Z,22.5
2019-05-07T04:53:54.235Z,22.5
2019-05-07T04:55:04.749Z,22.5
2019-05-07T04:56:03.962Z,22.5
2019-05-07T04:57:15.074Z,22.5
2019-05-07T04:58:15.327Z,22.5
2019-05-07T04:59:14.704Z,22.5
2019-05-07T05:00:13.978Z,22.5
2019-05-07T05:01:25.111Z,22.5
2019-05-07T05:02:24.388Z,28.125
2019-05-07T05:03:24.151Z,28.125
2019-05-07T05:05:35.103Z,28.125
2019-05-07T05:06:34.365Z,28.125
2019-05-07T05:07:33.655Z,28.125
2019-05-07T05:08:44.733Z,28.125
2019-05-07T05:09:44.136Z,28.125
2019-05-07T05:10:43.579Z,28.125
2019-05-07T05:10:55.301Z,28.125
2019-05-07T05:11:54.547Z,28.125
2019-05-07T05:12:53.908Z,28.125
2019-05-07T05:13:54.026Z,28.125
2019-05-07T05:14:53.372Z,28.125
2019-05-07T05:15:05.215Z,28.125
2019-05-07T05:16:04.480Z,28.125
2019-05-07T05:17:03.736Z,28.125
2019-05-07T05:18:14.810Z,28.125
2019-05-07T05:19:14.058Z,28.125
2019-05-07T05:20:13.371Z,33.75
2019-05-07T05:20:25.213Z,33.75
2019-05-07T05:21:24.459Z,33.75
2019-05-07T05:22:23.672Z,39.375
2019-05-07T05:23:34.812Z,45
2019-05-07T05:24:34.056Z,45
2019-05-07T05:25:33.415Z,50.625
2019-05-07T05:25:45.257Z,50.625
2019-05-07T05:26:44.515Z,45
2019-05-07T05:27:43.772Z,45
2019-05-07T05:28:54.840Z,45
2019-05-07T05:29:54.134Z,45
2019-05-07T05:30:53.502Z,39.375
2019-05-07T05:31:05.356Z,39.375
2019-05-07T05:32:04.654Z,39.375
2019-05-07T05:33:04.445Z,39.375
2019-05-07T05:34:15.062Z,39.375
2019-05-07T05:35:14.385Z,39.375
2019-05-07T05:36:13.781Z,39.375
2019-05-07T05:37:24.881Z,33.75
2019-05-07T05:38:24.134Z,39.375
2019-05-07T05:39:23.398Z,33.75
2019-05-07T05:39:35.255Z,33.75
2019-05-07T05:40:34.622Z,33.75
2019-05-07T05:41:34.564Z,33.75
2019-05-07T05:42:44.912Z,33.75
2019-05-07T05:43:44.235Z,33.75
2019-05-07T05:44:43.470Z,33.75
2019-05-07T05:44:55.318Z,33.75
2019-05-07T05:45:54.684Z,33.75
2019-05-07T05:46:53.996Z,33.75
2019-05-07T05:48:03.796Z,33.75
2019-05-07T05:48:53.522Z,33.75
2019-05-07T05:49:05.361Z,33.75
2019-05-07T05:50:04.608Z,33.75
2019-05-07T05:51:04.011Z,33.75
2019-05-07T05:52:15.124Z,33.75
2019-05-07T05:53:14.381Z,33.75
2019-05-07T05:54:13.674Z,33.75
2019-05-07T05:55:24.757Z,33.75
2019-05-07T05:56:24.109Z,33.75
2019-05-07T05:57:23.411Z,39.375
2019-05-07T05:57:35.245Z,39.375
2019-05-07T06:00:35.076Z,39.375
2019-05-07T06:01:34.387Z,39.375
2019-05-07T06:02:33.637Z,39.375
2019-05-07T06:03:33.874Z,39.375
2019-05-07T06:04:44.995Z,39.375
2019-05-07T06:05:44.242Z,39.375
2019-05-07T06:06:43.492Z,39.375
2019-05-07T06:07:07.837Z,39.375
2019-05-07T06:07:54.620Z,39.375
2019-05-07T06:08:53.865Z,39.375
2019-05-07T06:10:05.004Z,39.375
2019-05-07T06:11:04.423Z,39.375
2019-05-07T06:12:03.688Z,39.375
2019-05-07T06:13:14.794Z,39.375
2019-05-07T06:14:14.167Z,39.375
2019-05-07T06:15:13.380Z,39.375
2019-05-07T06:15:25.221Z,39.375
2019-05-07T06:16:24.469Z,39.375
2019-05-07T06:17:23.708Z,39.375
2019-05-07T06:18:34.760Z,39.375
2019-05-07T06:19:33.976Z,39.375
2019-05-07T06:20:45.044Z,39.375
2019-05-07T06:21:44.301Z,39.375
2019-05-07T06:22:43.551Z,39.375
2019-05-07T06:22:55.402Z,39.375
2019-05-07T06:23:54.648Z,39.375
2019-05-07T06:24:56.321Z,39.375
2019-05-07T06:26:05.448Z,45
2019-05-07T06:27:04.280Z,45
2019-05-07T06:28:03.549Z,50.625
2019-05-07T06:28:15.393Z,56.25
2019-05-07T06:29:03.814Z,56.25
2019-05-07T06:30:14.875Z,39.375
2019-05-07T06:31:14.090Z,45
2019-05-07T06:32:14.300Z,45
2019-05-07T06:33:14.540Z,45
2019-05-07T06:34:13.816Z,45
2019-05-07T06:35:24.876Z,45
2019-05-07T06:36:24.114Z,45
2019-05-07T06:37:23.344Z,45
2019-05-07T06:37:35.179Z,45
2019-05-07T06:38:34.407Z,56.25
2019-05-07T06:39:33.636Z,50.625
2019-05-07T06:40:44.691Z,56.25
2019-05-07T06:41:43.921Z,50.625
2019-05-07T06:42:44.123Z,39.375
2019-05-07T06:43:43.385Z,50.625
2019-05-07T06:43:55.241Z,50.625
2019-05-07T06:44:54.492Z,45
2019-05-07T06:45:53.709Z,45
2019-05-07T06:47:04.856Z,45
2019-05-07T06:48:04.069Z,50.625
2019-05-07T06:49:04.302Z,50.625
2019-05-07T06:50:03.517Z,45
2019-05-07T06:50:15.365Z,45
2019-05-07T06:51:17.196Z,39.375
2019-05-07T06:52:13.800Z,45
2019-05-07T06:53:24.908Z,45
2019-05-07T06:54:24.161Z,45
2019-05-07T06:55:23.415Z,45
2019-05-07T06:55:35.253Z,45
2019-05-07T06:56:34.487Z,45
2019-05-07T06:57:33.709Z,45
2019-05-07T06:58:44.761Z,50.625
2019-05-07T06:59:44.057Z,50.625
2019-05-07T07:00:43.314Z,50.625
2019-05-07T07:00:55.157Z,50.625
2019-05-07T07:01:54.357Z,50.625
2019-05-07T07:02:53.572Z,50.625
2019-05-07T07:03:05.416Z,50.625
2019-05-07T07:04:04.640Z,50.625
2019-05-07T07:05:03.895Z,50.625
2019-05-07T07:06:14.997Z,50.625
2019-05-07T07:07:25.917Z,50.625
2019-05-07T07:08:13.422Z,50.625
2019-05-07T07:08:25.258Z,50.625
2019-05-07T07:09:24.548Z,50.625
2019-05-07T07:10:23.848Z,50.625
2019-05-07T07:11:35.125Z,50.625
2019-05-07T07:12:35.311Z,50.625
2019-05-07T07:13:34.546Z,45
2019-05-07T07:14:33.766Z,45
2019-05-07T07:15:44.866Z,50.625
2019-05-07T07:16:44.125Z,56.25
2019-05-07T07:17:43.345Z,56.25
2019-05-07T07:17:55.189Z,50.625
2019-05-07T07:18:55.907Z,56.25
2019-05-07T07:19:54.623Z,56.25
2019-05-07T07:20:53.957Z,56.25
2019-05-07T07:22:05.006Z,61.875
2019-05-07T07:23:04.211Z,61.875
2019-05-07T07:24:03.433Z,56.25
2019-05-07T07:24:15.274Z,56.25
2019-05-07T07:26:14.863Z,50.625
2019-05-07T07:27:14.081Z,39.375
2019-05-07T07:28:14.289Z,39.375
2019-05-07T07:29:13.496Z,33.75
2019-05-07T07:29:25.342Z,33.75
2019-05-07T07:30:24.546Z,33.75
2019-05-07T07:31:26.137Z,33.75
2019-05-07T07:32:34.848Z,33.75
2019-05-07T07:33:34.079Z,50.625
2019-05-07T07:34:45.153Z,56.25
2019-05-07T07:35:44.421Z,56.25
2019-05-07T07:36:43.614Z,56.25
2019-05-07T07:37:54.647Z,56.25
2019-05-07T07:38:53.860Z,56.25
2019-05-07T07:40:04.911Z,56.25
2019-05-07T07:41:05.450Z,56.25
2019-05-07T07:42:03.379Z,56.25
2019-05-07T07:42:15.220Z,56.25
2019-05-07T07:44:14.663Z,56.25
2019-05-07T07:45:13.904Z,56.25
2019-05-07T07:46:16.390Z,56.25
2019-05-07T07:46:25.401Z,56.25
2019-05-07T07:47:14.248Z,61.875
2019-05-07T07:48:14.608Z,61.875
2019-05-07T07:49:15.485Z,67.5
2019-05-07T07:50:14.552Z,67.5
2019-05-07T07:51:14.067Z,73.125
2019-05-07T07:52:24.942Z,78.75
2019-05-07T07:53:24.148Z,78.75
2019-05-07T07:54:23.366Z,84.375
2019-05-07T07:54:35.208Z,90
2019-05-07T07:55:35.397Z,95.625
2019-05-07T07:56:23.762Z,95.625
2019-05-07T07:57:24.000Z,95.625
2019-05-07T07:58:23.357Z,95.625
2019-05-07T07:58:35.209Z,95.625
2019-05-07T07:59:34.420Z,95.625
2019-05-07T08:00:33.647Z,95.625
2019-05-07T08:01:44.686Z,90
2019-05-07T08:02:43.914Z,90
2019-05-07T08:03:55.061Z,90
2019-05-07T08:04:54.277Z,90
2019-05-07T08:05:53.509Z,90
2019-05-07T08:06:05.353Z,90
2019-05-07T08:07:04.573Z,90
2019-05-07T08:08:03.834Z,78.75
2019-05-07T08:09:14.942Z,90
2019-05-07T08:10:14.164Z,90
2019-05-07T08:11:13.383Z,90
2019-05-07T08:11:25.225Z,90
2019-05-07T08:12:24.825Z,90
2019-05-07T08:13:24.268Z,90
2019-05-07T08:14:23.545Z,95.625
2019-05-07T08:14:35.383Z,95.625
2019-05-07T08:15:34.584Z,90
2019-05-07T08:16:33.838Z,90
2019-05-07T08:17:33.349Z,84.375
2019-05-07T08:17:45.200Z,84.375
2019-05-07T08:18:44.405Z,84.375
2019-05-07T08:19:43.645Z,78.75
2019-05-07T08:20:54.747Z,78.75
2019-05-07T08:21:53.982Z,78.75
2019-05-07T08:23:05.033Z,78.75
2019-05-07T08:24:04.265Z,61.875
2019-05-07T08:25:03.587Z,78.75
2019-05-07T08:25:15.429Z,84.375
2019-05-07T08:26:14.715Z,84.375
2019-05-07T08:27:15.167Z,84.375
2019-05-07T08:28:24.938Z,84.375
2019-05-07T08:29:25.126Z,84.375
2019-05-07T08:30:24.451Z,84.375
2019-05-07T08:31:23.673Z,84.375
2019-05-07T08:32:34.739Z,84.375
2019-05-07T08:33:33.950Z,84.375
2019-05-07T08:34:45.020Z,84.375
2019-05-07T08:35:44.278Z,78.75
2019-05-07T08:36:43.467Z,84.375
2019-05-07T08:36:55.314Z,84.375
2019-05-07T08:37:54.532Z,84.375
2019-05-07T08:38:53.732Z,84.375
2019-05-07T08:40:04.809Z,84.375
2019-05-07T08:41:04.026Z,84.375
2019-05-07T08:42:15.103Z,84.375
2019-05-07T08:43:03.435Z,90
2019-05-07T08:43:15.277Z,90
2019-05-07T08:45:14.720Z,90
2019-05-07T08:46:13.902Z,95.625
2019-05-07T08:47:24.973Z,95.625
2019-05-07T08:48:24.179Z,101.25
2019-05-07T08:49:35.547Z,101.25
2019-05-07T08:49:39.478Z,95.625
2019-05-07T08:50:34.480Z,95.625
2019-05-07T08:51:34.705Z,101.25
2019-05-07T08:52:34.932Z,101.25
2019-05-07T08:53:34.141Z,106.875
2019-05-07T08:54:33.359Z,106.875
2019-05-07T08:54:45.194Z,106.875
2019-05-07T08:55:44.400Z,106.875
2019-05-07T08:56:43.620Z,106.875
2019-05-07T08:57:45.856Z,106.875
2019-05-07T08:58:55.025Z,106.875
2019-05-07T09:00:00.206Z,112.5
2019-05-07T09:00:55.081Z,112.5
2019-05-07T09:01:54.871Z,112.5
2019-05-07T09:02:54.137Z,112.5
2019-05-07T09:03:53.332Z,112.5
2019-05-07T09:04:05.175Z,112.5
2019-05-07T09:05:04.377Z,112.5
2019-05-07T09:06:03.621Z,112.5
2019-05-07T09:07:14.667Z,112.5
2019-05-07T09:08:14.102Z,95.625
2019-05-07T09:09:13.487Z,112.5
2019-05-07T09:09:25.168Z,112.5
2019-05-07T09:10:24.381Z,118.125
2019-05-07T09:11:23.697Z,118.125
2019-05-07T09:12:23.906Z,118.125
2019-05-07T09:13:35.069Z,123.75
2019-05-07T09:14:35.422Z,123.75
2019-05-07T09:15:34.645Z,123.75
2019-05-07T09:16:34.961Z,123.75
2019-05-07T09:17:34.186Z,123.75
2019-05-07T09:18:33.528Z,123.75
2019-05-07T09:18:45.366Z,129.375
2019-05-07T09:20:44.777Z,129.375
2019-05-07T09:21:44.040Z,135
2019-05-07T09:22:55.071Z,129.375
2019-05-07T09:23:54.413Z,118.125
2019-05-07T09:24:53.619Z,106.875
2019-05-07T09:25:53.809Z,101.25
2019-05-07T09:27:04.876Z,101.25
2019-05-07T09:28:04.083Z,129.375
2019-05-07T09:29:03.375Z,123.75
2019-05-07T09:29:15.184Z,123.75
2019-05-07T09:30:14.390Z,95.625
2019-05-07T09:31:13.604Z,101.25
2019-05-07T09:32:24.659Z,101.25
2019-05-07T09:33:23.881Z,101.25
2019-05-07T09:34:34.957Z,106.875
2019-05-07T09:35:34.209Z,106.875
2019-05-07T09:36:33.470Z,106.875
2019-05-07T09:36:45.271Z,106.875
2019-05-07T09:37:44.463Z,101.25
2019-05-07T09:38:56.006Z,101.25
2019-05-07T09:39:54.730Z,101.25
2019-05-07T09:40:56.783Z,101.25
2019-05-07T09:42:04.974Z,106.875
2019-05-07T09:43:04.172Z,106.875
2019-05-07T09:44:03.379Z,112.5
2019-05-07T09:44:15.215Z,106.875
2019-05-07T09:45:14.468Z,112.5
2019-05-07T09:46:13.674Z,112.5
2019-05-07T09:47:24.710Z,129.375
2019-05-07T09:48:24.005Z,129.375
2019-05-07T09:49:35.080Z,129.375
2019-05-07T09:50:34.339Z,123.75
2019-05-07T09:51:33.540Z,123.75
2019-05-07T09:51:45.376Z,123.75
2019-05-07T09:52:44.574Z,123.75
2019-05-07T09:53:43.787Z,118.125
2019-05-07T09:54:43.585Z,146.25
2019-05-07T09:54:55.487Z,146.25
2019-05-07T09:55:55.078Z,151.875
2019-05-07T09:56:54.274Z,118.125
2019-05-07T09:57:53.475Z,112.5
2019-05-07T09:58:05.316Z,118.125
2019-05-07T09:59:04.498Z,118.125
2019-05-07T10:00:03.702Z,118.125
2019-05-07T10:01:14.800Z,112.5
2019-05-07T10:02:13.997Z,112.5
2019-05-07T10:03:25.033Z,112.5
2019-05-07T10:04:24.236Z,118.125
2019-05-07T10:05:23.475Z,118.125
2019-05-07T10:05:35.341Z,112.5
2019-05-07T10:06:34.514Z,106.875
2019-05-07T10:07:33.723Z,101.25
2019-05-07T10:08:44.777Z,140.625
2019-05-07T10:09:43.998Z,146.25
2019-05-07T10:10:43.344Z,151.875
2019-05-07T10:10:55.181Z,151.875
2019-05-07T10:11:54.346Z,157.5
2019-05-07T10:12:53.542Z,157.5
2019-05-07T10:13:05.376Z,157.5
2019-05-07T10:14:04.554Z,157.5
2019-05-07T10:15:03.739Z,157.5
2019-05-07T10:17:15.118Z,151.875
2019-05-07T10:18:03.694Z,146.25
2019-05-07T10:19:15.096Z,140.625
2019-05-07T10:20:21.490Z,146.25
2019-05-07T10:21:14.654Z,146.25
2019-05-07T10:22:13.865Z,106.875
2019-05-07T10:23:24.952Z,123.75
2019-05-07T10:24:24.152Z,140.625
2019-05-07T10:25:23.346Z,106.875
2019-05-07T10:25:35.185Z,106.875
2019-05-07T10:26:34.453Z,106.875
2019-05-07T10:27:34.047Z,112.5
2019-05-07T10:28:45.109Z,112.5
2019-05-07T10:29:44.301Z,118.125
2019-05-07T10:30:44.498Z,118.125
2019-05-07T10:31:43.700Z,118.125
2019-05-07T10:32:54.893Z,123.75
2019-05-07T10:33:54.070Z,168.75
2019-05-07T10:35:05.084Z,174.375
2019-05-07T10:36:04.287Z,140.625
2019-05-07T10:37:03.489Z,135
2019-05-07T10:37:15.358Z,135
2019-05-07T10:38:14.700Z,135
2019-05-07T10:39:14.156Z,140.625
2019-05-07T10:40:13.431Z,140.625
2019-05-07T10:40:25.275Z,140.625
2019-05-07T10:41:24.473Z,146.25
2019-05-07T10:42:23.681Z,151.875
2019-05-07T10:43:34.834Z,151.875
2019-05-07T10:44:34.023Z,151.875
2019-05-07T10:45:45.074Z,140.625
2019-05-07T10:46:44.277Z,135
2019-05-07T10:47:43.494Z,146.25
2019-05-07T10:47:55.336Z,135
2019-05-07T10:48:54.592Z,135
2019-05-07T10:49:53.815Z,140.625
2019-05-07T10:50:53.998Z,146.25
2019-05-07T10:52:05.077Z,151.875
2019-05-07T10:53:04.363Z,151.875
2019-05-07T10:54:03.612Z,151.875
2019-05-07T10:55:14.653Z,180
2019-05-07T10:56:13.864Z,163.125
2019-05-07T10:57:14.077Z,157.5
2019-05-07T10:58:13.315Z,168.75
2019-05-07T10:58:25.160Z,168.75
2019-05-07T10:59:24.416Z,168.75
2019-05-07T11:00:23.647Z,168.75
2019-05-07T11:01:34.723Z,163.125
2019-05-07T11:02:33.952Z,157.5
2019-05-07T11:03:45.012Z,157.5
2019-05-07T11:04:45.882Z,157.5
2019-05-07T11:05:44.536Z,163.125
2019-05-07T11:06:43.746Z,157.5
2019-05-07T11:07:54.868Z,151.875
2019-05-07T11:08:54.082Z,157.5
2019-05-07T11:10:05.141Z,174.375
2019-05-07T11:11:04.397Z,163.125
2019-05-07T11:12:03.599Z,157.5
2019-05-07T11:13:14.682Z,151.875
2019-05-07T11:14:13.940Z,151.875
2019-05-07T11:15:25.013Z,146.25
2019-05-07T11:16:24.227Z,140.625
2019-05-07T11:17:23.444Z,140.625
2019-05-07T11:17:35.283Z,140.625
2019-05-07T11:18:23.634Z,140.625
2019-05-07T11:19:34.715Z,146.25
2019-05-07T11:20:46.292Z,146.25
2019-05-07T11:21:45.120Z,146.25
2019-05-07T11:22:44.353Z,151.875
2019-05-07T11:23:43.731Z,151.875
2019-05-07T11:24:54.801Z,157.5
2019-05-07T11:25:54.077Z,163.125
2019-05-07T11:26:53.382Z,163.125
2019-05-07T11:27:05.216Z,163.125
2019-05-07T11:28:04.397Z,168.75
2019-05-07T11:29:03.637Z,168.75
2019-05-07T11:30:14.718Z,168.75
2019-05-07T11:31:13.994Z,168.75
2019-05-07T11:32:25.068Z,168.75
2019-05-07T11:33:24.298Z,168.75
2019-05-07T11:34:23.496Z,174.375
2019-05-07T11:34:35.333Z,174.375
2019-05-07T11:35:34.553Z,174.375
2019-05-07T11:36:34.329Z,174.375
2019-05-07T11:37:44.863Z,174.375
2019-05-07T11:38:44.625Z,180
2019-05-07T11:39:43.354Z,185.625
2019-05-07T11:39:55.202Z,180
2019-05-07T11:40:54.532Z,180
2019-05-07T11:41:53.791Z,168.75
2019-05-07T11:42:54.978Z,168.75
2019-05-07T11:43:54.248Z,163.125
2019-05-07T11:44:54.969Z,163.125
2019-05-07T11:45:54.284Z,163.125
2019-05-07T11:47:04.692Z,157.5
2019-05-07T11:48:04.343Z,157.5
2019-05-07T11:48:53.964Z,157.5
2019-05-07T11:50:05.079Z,163.125
2019-05-07T11:51:05.278Z,151.875
2019-05-07T11:52:04.479Z,146.25
2019-05-07T11:53:03.692Z,140.625
2019-05-07T11:54:03.441Z,140.625
2019-05-07T11:54:15.280Z,135
2019-05-07T11:55:14.577Z,123.75
2019-05-07T11:56:13.800Z,112.5
2019-05-07T11:57:24.935Z,106.875
2019-05-07T11:58:24.169Z,106.875
2019-05-07T11:59:23.403Z,101.25
2019-05-07T11:59:35.251Z,101.25
2019-05-07T12:00:23.617Z,101.25
2019-05-07T12:00:35.429Z,101.25
2019-05-07T12:01:43.300Z,106.875
2019-05-07T12:02:33.795Z,112.5
2019-05-07T12:03:44.864Z,123.75
2019-05-07T12:04:44.052Z,135
2019-05-07T12:05:43.321Z,140.625
2019-05-07T12:05:55.168Z,140.625
2019-05-07T12:06:43.537Z,151.875
2019-05-07T12:06:55.382Z,151.875
2019-05-07T12:07:54.653Z,168.75
2019-05-07T12:08:54.888Z,174.375
2019-05-07T12:09:54.274Z,180
2019-05-07T12:10:54.517Z,180
2019-05-07T12:11:54.736Z,174.375
2019-05-07T12:12:53.978Z,168.75
2019-05-07T12:14:53.482Z,168.75
2019-05-07T12:15:05.322Z,168.75
2019-05-07T12:16:04.509Z,151.875
2019-05-07T12:17:03.762Z,146.25
2019-05-07T12:18:14.860Z,118.125
2019-05-07T12:19:04.202Z,118.125
2019-05-07T12:20:03.420Z,123.75
2019-05-07T12:20:15.264Z,123.75
2019-05-07T12:22:14.721Z,123.75
2019-05-07T12:23:13.907Z,135
2019-05-07T12:25:25.145Z,123.75
2019-05-07T12:26:13.503Z,123.75
2019-05-07T12:26:25.378Z,123.75
2019-05-07T12:27:24.582Z,129.375
2019-05-07T12:28:23.828Z,135
2019-05-07T12:29:34.890Z,140.625
2019-05-07T12:30:34.107Z,151.875
2019-05-07T12:31:33.671Z,146.25
2019-05-07T12:31:45.150Z,146.25
2019-05-07T12:32:44.365Z,146.25
2019-05-07T12:33:43.606Z,140.625
2019-05-07T12:34:43.805Z,140.625